Time;durP1;ratioP1;P1;durP2;ratioP2;P2;SDS_P1;SDS_P2;PMS_P1;PMS_P2;Temp;Humidity;BMP_temperature;BMP_pressure;BME280_temperature;BME280_humidity;BME280_pressure;Samples;Min_cycle;Max_cycle;Signal;HPM_P1;HPM_P2
2023/01/13 00:01:15;;;;;;;26.58;4.95;;;8.70;1.00;;;;;;5116227;28;20412;-42
2023/01/13 00:03:41;;;;;;;26.75;4.90;;;8.60;99.90;;;;;;5099126;28;20095;-43
2023/01/13 00:06:13;;;;;;;28.48;5.78;;;8.60;99.90;;;;;;5099255;28;20401;-42
2023/01/13 00:08:38;;;;;;;36.25;6.57;;;8.50;99.90;;;;;;5116440;28;20043;-42
2023/01/13 00:11:04;;;;;;;33.35;6.60;;;8.50;99.90;;;;;;5116508;27;20104;-42
2023/01/13 00:13:32;;;;;;;32.58;4.97;;;8.50;1.00;;;;;;5121354;27;20122;-42
2023/01/13 00:16:00;;;;;;;32.85;6.65;;;8.50;99.90;;;;;;5121324;27;20058;-42
2023/01/13 00:18:26;;;;;;;31.80;6.28;;;8.50;1.00;;;;;;5120426;27;20047;-42
2023/01/13 00:21:02;;;;;;;27.42;5.40;;;8.50;1.00;;;;;;5138947;27;20362;-42
2023/01/13 00:23:29;;;;;;;26.23;5.88;;;8.50;1.00;;;;;;5103526;27;20053;-42
2023/01/13 00:26:00;;;;;;;30.77;5.88;;;8.50;1.00;;;;;;5120419;27;20058;-42
2023/01/13 00:28:25;;;;;;;30.38;5.78;;;8.40;1.00;;;;;;5138355;27;20370;-42
2023/01/13 00:30:51;;;;;;;35.78;7.68;;;8.40;73.20;;;;;;5138218;27;20050;-42
2023/01/13 00:33:17;;;;;;;31.65;5.88;;;8.30;99.90;;;;;;5138219;27;20046;-42
2023/01/13 00:35:43;;;;;;;30.30;5.28;;;8.40;1.00;;;;;;5138253;27;20529;-42
2023/01/13 00:38:08;;;;;;;38.15;7.20;;;8.30;99.90;;;;;;5120603;27;20043;-42
2023/01/13 00:40:34;;;;;;;40.50;7.07;;;8.30;1.00;;;;;;5115931;28;20549;-42
2023/01/13 00:45:44;;;;;;;36.65;7.75;;;8.20;1.00;;;;;;5117350;28;20054;-42
2023/01/13 00:48:10;;;;;;;42.33;7.55;;;8.10;70.00;;;;;;5117067;28;20047;-42
2023/01/13 00:50:36;;;;;;;25.63;5.38;;;8.10;1.00;;;;;;5116379;28;20054;-42
2023/01/13 00:53:01;;;;;;;39.70;8.25;;;8.00;99.90;;;;;;5117300;28;20048;-42
2023/01/13 00:55:30;;;;;;;40.72;7.00;;;8.10;1.00;;;;;;5117281;28;20478;-42
2023/01/13 00:58:02;;;;;;;29.50;6.65;;;8.10;99.90;;;;;;5117778;28;20086;-42
2023/01/13 01:00:29;;;;;;;36.40;6.97;;;8.10;1.00;;;;;;5117136;28;20516;-42
2023/01/13 01:02:54;;;;;;;36.53;7.93;;;8.00;34.50;;;;;;5117754;28;20059;-42
2023/01/13 01:05:20;;;;;;;42.22;7.75;;;8.00;48.50;;;;;;5115832;28;20047;-42
2023/01/13 01:07:46;;;;;;;43.92;7.43;;;8.00;1.00;;;;;;5116136;28;20474;-42
2023/01/13 01:10:11;;;;;;;41.58;8.65;;;8.00;99.90;;;;;;5116973;28;20039;-42
2023/01/13 01:12:37;;;;;;;34.70;7.15;;;8.10;1.00;;;;;;5116797;28;20078;-42
2023/01/13 01:15:06;;;;;;;28.40;6.35;;;8.00;99.90;;;;;;5117731;28;20065;-42
2023/01/13 01:17:32;;;;;;;40.70;9.27;;;8.00;1.00;;;;;;5116881;28;20052;-42
2023/01/13 01:19:58;;;;;;;39.60;7.45;;;8.00;99.90;;;;;;5116690;28;20478;-42
2023/01/13 01:22:23;;;;;;;35.97;7.82;;;8.00;99.90;;;;;;5116737;28;20044;-42
2023/01/13 01:24:49;;;;;;;48.65;7.97;;;8.00;99.90;;;;;;5116069;28;20040;-42
2023/01/13 01:27:15;;;;;;;32.17;6.85;;;8.00;18.80;;;;;;5098532;28;20047;-42
2023/01/13 01:29:41;;;;;;;40.90;7.82;;;7.90;99.90;;;;;;5116443;28;20054;-42
2023/01/13 01:32:06;;;;;;;37.53;5.60;;;7.90;99.90;;;;;;5116593;28;20481;-42
2023/01/13 01:34:32;;;;;;;39.78;6.72;;;7.80;99.90;;;;;;5116613;28;20049;-42
2023/01/13 01:36:58;;;;;;;36.03;9.10;;;7.80;99.90;;;;;;5099027;28;20457;-42
2023/01/13 01:39:23;;;;;;;35.58;6.75;;;7.90;1.00;;;;;;5116408;28;20075;-42
2023/01/13 01:44:42;;;;;;;44.35;7.68;;;7.80;1.00;;;;;;5136867;27;20053;-42
2023/01/13 01:47:16;;;;;;;40.92;8.18;;;7.80;99.90;;;;;;5118532;27;20043;-42
2023/01/13 01:49:43;;;;;;;37.92;6.30;;;7.80;1.00;;;;;;5137414;27;20050;-42
2023/01/13 01:52:15;;;;;;;36.97;6.40;;;7.80;99.90;;;;;;5137291;27;20051;-42
2023/01/13 01:55:06;;;;;;;41.72;8.30;;;7.80;99.90;;;;;;5137002;27;20107;-42
2023/01/13 01:57:55;;;;;;;39.55;8.15;;;7.90;99.90;;;;;;5137474;27;20070;-42
2023/01/13 02:00:21;;;;;;;29.55;6.07;;;7.80;1.00;;;;;;5136599;27;20054;-42
2023/01/13 02:02:50;;;;;;;42.60;7.85;;;7.90;1.00;;;;;;5118175;27;20049;-42
2023/01/13 02:05:16;;;;;;;40.47;8.35;;;7.80;1.00;;;;;;5101317;27;20065;-42
2023/01/13 02:07:45;;;;;;;36.85;6.50;;;7.90;1.00;;;;;;5118281;27;20054;-41
2023/01/13 02:10:14;;;;;;;44.53;7.72;;;7.90;1.00;;;;;;5118074;27;20038;-42
2023/01/13 02:12:41;;;;;;;36.88;8.63;;;7.80;1.00;;;;;;5136322;27;20047;-42
2023/01/13 02:15:14;;;;;;;41.20;7.43;;;7.80;1.00;;;;;;5118672;27;20051;-42
2023/01/13 02:18:18;;;;;;;41.10;7.95;;;7.80;1.00;;;;;;5136260;27;20047;-42
2023/01/13 02:20:49;;;;;;;;;;;7.80;99.90;;;;;;5077424;27;20047;-42
2023/01/13 02:26:49;;;;;;;41.58;8.38;;;7.90;99.90;;;;;;5111468;27;20066;-42
2023/01/13 02:33:01;;;;;;;39.97;7.53;;;7.80;1.00;;;;;;5135885;27;20049;-41
2023/01/13 02:35:43;;;;;;;47.25;7.57;;;7.90;6.30;;;;;;5136977;27;20100;-42
2023/01/13 02:38:11;;;;;;;45.53;6.75;;;7.80;99.90;;;;;;5136728;27;20058;-41
2023/01/13 02:40:55;;;;;;;45.10;6.95;;;7.80;99.90;;;;;;5135438;27;20101;-41
2023/01/13 02:46:30;;;;;;;44.42;6.97;;;7.70;99.90;;;;;;5136181;27;20531;-41
2023/01/13 02:49:01;;;;;;;45.53;7.25;;;7.60;1.00;;;;;;5136454;27;20383;-42
2023/01/13 02:51:29;;;;;;;44.58;7.60;;;7.70;1.00;;;;;;5135599;27;20043;-42
2023/01/13 02:54:17;;;;;;;34.08;7.22;;;7.80;1.00;;;;;;5117323;27;20512;-42
2023/01/13 02:56:47;;;;;;;50.25;9.07;;;7.70;1.00;;;;;;5136089;27;20050;-42
2023/01/13 02:59:13;;;;;;;44.13;6.60;;;7.80;1.00;;;;;;5135407;27;20198;-41
2023/01/13 03:01:41;;;;;;;43.42;7.47;;;7.70;28.70;;;;;;5118016;27;20043;-41
2023/01/13 03:04:11;;;;;;;43.38;7.10;;;7.80;99.90;;;;;;5117163;27;20047;-41
2023/01/13 03:07:19;;;;;;;42.00;8.65;;;8.00;1.00;;;;;;5135208;27;20551;-41
2023/01/13 03:10:12;;;;;;;38.78;6.88;;;8.00;99.90;;;;;;5095294;27;20473;-41
2023/01/13 03:13:09;;;;;;;40.97;6.70;;;8.00;1.00;;;;;;5096572;27;20188;-41
2023/01/13 03:15:39;;;;;;;48.33;8.85;;;8.00;99.90;;;;;;5117847;27;20140;-41
2023/01/13 03:18:16;;;;;;;37.78;6.68;;;7.90;1.00;;;;;;5135021;27;20485;-41
2023/01/13 03:20:53;;;;;;;40.50;7.43;;;8.00;1.00;;;;;;5135003;27;20054;-41
2023/01/13 03:23:35;;;;;;;35.92;6.63;;;8.00;99.90;;;;;;5101554;27;20051;-41
2023/01/13 03:26:13;;;;;;;28.13;5.65;;;8.00;99.90;;;;;;5117357;27;20043;-41
2023/01/13 03:28:47;;;;;;;38.85;7.10;;;8.00;1.00;;;;;;5134934;27;20050;-41
2023/01/13 03:31:18;;;;;;;35.40;7.38;;;8.10;99.90;;;;;;5135183;27;20047;-42
2023/01/13 03:33:58;;;;;;;33.28;6.30;;;8.10;99.90;;;;;;5134829;27;20047;-41
2023/01/13 03:36:26;;;;;;;34.15;7.70;;;8.10;99.90;;;;;;5134825;27;20504;-42
2023/01/13 03:39:06;;;;;;;41.15;7.57;;;8.20;99.90;;;;;;5099650;27;20047;-41
2023/01/13 03:41:40;;;;;;;35.78;6.85;;;8.20;99.90;;;;;;5116203;27;20086;-42
2023/01/13 03:44:22;;;;;;;35.78;6.70;;;8.20;99.90;;;;;;5135016;27;20057;-41
2023/01/13 03:47:11;;;;;;;33.60;7.20;;;8.30;1.00;;;;;;5134236;27;20043;-41
2023/01/13 03:49:46;;;;;;;35.33;8.63;;;8.20;37.10;;;;;;5116799;27;20103;-41
2023/01/13 03:52:18;;;;;;;42.03;7.25;;;8.30;89.90;;;;;;5134701;27;20047;-41
2023/01/13 03:55:05;;;;;;;34.92;6.38;;;8.20;99.90;;;;;;5134660;28;20556;-41
2023/01/13 03:57:35;;;;;;;46.95;9.52;;;8.10;99.90;;;;;;5116775;28;20129;-41
2023/01/13 04:00:03;;;;;;;32.85;6.03;;;8.10;99.90;;;;;;5134396;28;20046;-41
2023/01/13 04:02:32;;;;;;;36.08;7.13;;;8.20;1.00;;;;;;5135308;28;20372;-41
2023/01/13 04:05:01;;;;;;;40.92;7.00;;;8.20;99.90;;;;;;5134430;28;20111;-41
2023/01/13 04:07:48;;;;;;;35.78;6.43;;;8.10;99.90;;;;;;5134435;28;20079;-41
2023/01/13 04:10:20;;;;;;;38.40;7.40;;;8.10;99.90;;;;;;5134768;28;20043;-41
2023/01/13 04:13:01;;;;;;;27.55;6.18;;;8.10;99.90;;;;;;5135281;28;20055;-41
2023/01/13 04:15:44;;;;;;;44.97;7.97;;;8.10;99.90;;;;;;5134404;28;20484;-41
2023/01/13 04:18:17;;;;;;;40.58;7.75;;;8.10;99.90;;;;;;5116543;28;20054;-41
2023/01/13 04:20:46;;;;;;;36.05;7.57;;;8.20;99.90;;;;;;5116555;28;20430;-41
2023/01/13 04:23:12;;;;;;;30.95;6.63;;;8.10;99.90;;;;;;5134340;28;20051;-41
2023/01/13 04:25:39;;;;;;;33.05;8.20;;;8.10;99.90;;;;;;5116501;28;20542;-41
2023/01/13 04:28:05;;;;;;;42.03;6.63;;;8.10;99.90;;;;;;5134237;28;20050;-41
2023/01/13 04:30:31;;;;;;;38.67;7.18;;;8.00;99.90;;;;;;5134432;28;20043;-41
2023/01/13 04:32:57;;;;;;;39.42;6.75;;;8.10;1.00;;;;;;5115664;28;20054;-41
2023/01/13 04:35:22;;;;;;;42.65;8.00;;;8.10;99.90;;;;;;5115903;28;20076;-39
2023/01/13 04:37:48;;;;;;;41.38;8.50;;;8.20;1.00;;;;;;5098732;28;20051;-41
2023/01/13 04:40:14;;;;;;;27.23;6.32;;;8.30;1.00;;;;;;5133859;28;20036;-41
2023/01/13 04:42:40;;;;;;;39.15;8.43;;;8.30;1.00;;;;;;5116184;28;20047;-41
2023/01/13 04:45:06;;;;;;;46.45;6.82;;;8.30;27.20;;;;;;5134141;28;20519;-41
2023/01/13 04:47:32;;;;;;;36.20;7.90;;;8.30;15.70;;;;;;5134123;28;20458;-41
2023/01/13 04:49:57;;;;;;;34.53;7.07;;;8.40;99.90;;;;;;5134021;28;20092;-41
2023/01/13 04:52:23;;;;;;;33.85;7.38;;;8.40;1.00;;;;;;5116468;28;20373;-41
2023/01/13 04:54:48;;;;;;;29.15;7.00;;;8.40;1.00;;;;;;5134840;28;20532;-39
2023/01/13 04:57:14;;;;;;;34.92;8.60;;;8.40;99.90;;;;;;5134775;27;20039;-41
2023/01/13 04:59:40;;;;;;;38.25;8.70;;;8.50;1.00;;;;;;5118364;27;20126;-41
2023/01/13 05:02:07;;;;;;;36.75;6.72;;;8.50;1.00;;;;;;5137775;27;20081;-40
2023/01/13 05:04:34;;;;;;;25.00;7.35;;;8.70;99.90;;;;;;5102341;27;20051;-39
2023/01/13 05:06:59;;;;;;;32.45;6.85;;;8.60;1.00;;;;;;5137635;27;20085;-40
2023/01/13 05:09:25;;;;;;;32.70;7.05;;;8.60;1.00;;;;;;5103359;27;20082;-40
2023/01/13 05:17:22;;;;;;;35.15;7.38;;;8.60;1.00;;;;;;5137470;27;20047;-40
2023/01/13 05:19:48;;;;;;;32.95;6.70;;;8.60;1.00;;;;;;5137280;27;20047;-40
2023/01/13 05:27:43;;;;;;;28.40;6.10;;;8.60;1.00;;;;;;5137869;27;20080;-40
2023/01/13 05:30:10;;;;;;;31.13;5.10;;;8.60;99.90;;;;;;5137170;27;20035;-38
2023/01/13 05:32:36;;;;;;;24.25;6.60;;;8.60;99.90;;;;;;5137158;27;20058;-39
2023/01/13 05:35:02;;;;;;;30.15;6.03;;;8.60;1.00;;;;;;5118937;27;20039;-40
2023/01/13 05:37:28;;;;;;;26.42;5.85;;;8.60;1.00;;;;;;5137032;27;20047;-40
2023/01/13 05:45:22;;;;;;;24.73;6.22;;;8.60;99.90;;;;;;5137775;27;20051;-39
2023/01/13 05:47:49;;;;;;;26.63;5.13;;;8.60;99.90;;;;;;5118430;27;20389;-40
2023/01/13 05:50:15;;;;;;;29.13;6.32;;;8.60;99.90;;;;;;5118773;27;20195;-39
2023/01/13 05:52:42;;;;;;;27.17;5.72;;;8.70;99.90;;;;;;5118649;27;20096;-39
2023/01/13 05:55:09;;;;;;;24.20;5.32;;;8.60;99.90;;;;;;5118647;27;20043;-40
2023/01/13 05:57:34;;;;;;;26.77;5.10;;;8.60;1.00;;;;;;5136653;27;20043;-38
2023/01/13 06:00:00;;;;;;;30.73;6.32;;;8.50;1.00;;;;;;5136514;27;20039;-39
2023/01/13 06:02:26;;;;;;;32.67;5.10;;;8.50;1.00;;;;;;5118259;27;20043;-40
2023/01/13 06:04:52;;;;;;;25.52;4.85;;;8.40;70.40;;;;;;5101595;27;20484;-38
2023/01/13 06:07:18;;;;;;;30.58;6.30;;;8.40;99.90;;;;;;5102228;27;20461;-38
2023/01/13 06:09:43;;;;;;;24.05;5.88;;;8.50;1.00;;;;;;5136101;27;20042;-37
2023/01/13 06:12:13;;;;;;;24.15;5.20;;;8.50;1.00;;;;;;5118112;27;20065;-39
2023/01/13 06:14:39;;;;;;;25.05;4.07;;;8.40;99.90;;;;;;5136352;27;20138;-37
2023/01/13 06:17:09;;;;;;;27.88;5.45;;;8.30;99.90;;;;;;5136273;27;20130;-39
2023/01/13 06:19:35;;;;;;;25.52;5.10;;;8.10;1.00;;;;;;5136123;27;20049;-41
2023/01/13 06:22:18;;;;;;;25.75;4.82;;;7.90;99.90;;;;;;5136067;27;20051;-41
2023/01/13 06:24:47;;;;;;;37.63;4.97;;;7.90;99.90;;;;;;5135933;27;20047;-41
2023/01/13 06:27:14;;;;;;;26.73;5.65;;;8.00;1.00;;;;;;5135966;27;20050;-41
2023/01/13 06:29:40;;;;;;;29.00;4.50;;;8.10;99.90;;;;;;5135898;27;20154;-41
2023/01/13 06:32:15;;;;;;;26.35;5.95;;;8.20;1.00;;;;;;5117788;27;20076;-41
2023/01/13 06:34:46;;;;;;;24.52;4.95;;;8.10;99.90;;;;;;5117453;27;20045;-42
2023/01/13 06:37:15;;;;;;;23.30;4.90;;;8.20;1.00;;;;;;5117558;27;20134;-42
2023/01/13 06:39:41;;;;;;;27.48;6.32;;;8.10;99.90;;;;;;5117730;27;20051;-42
2023/01/13 06:44:52;;;;;;;19.55;4.90;;;8.00;51.70;;;;;;5135605;27;20047;-42
2023/01/13 06:47:21;;;;;;;23.95;6.45;;;7.90;99.90;;;;;;5135589;27;20047;-42
2023/01/13 06:49:46;;;;;;;28.70;6.45;;;7.90;56.80;;;;;;5136018;27;20043;-42
2023/01/13 06:52:12;;;;;;;22.17;4.30;;;7.80;99.90;;;;;;5136587;27;20043;-42
2023/01/13 06:54:38;;;;;;;23.92;4.80;;;7.80;99.90;;;;;;5135383;27;20485;-43
2023/01/13 06:57:04;;;;;;;25.75;4.38;;;7.70;99.90;;;;;;5118136;27;20043;-43
2023/01/13 06:59:29;;;;;;;31.80;6.70;;;7.70;99.90;;;;;;5116989;27;20035;-42
2023/01/13 07:01:55;;;;;;;26.45;5.35;;;7.70;1.00;;;;;;5135303;27;20131;-42
2023/01/13 07:04:21;;;;;;;26.80;4.75;;;7.50;1.00;;;;;;5117864;27;20051;-41
2023/01/13 07:06:46;;;;;;;29.17;5.80;;;7.40;99.90;;;;;;5135905;27;20047;-41
2023/01/13 07:09:12;;;;;;;28.23;4.25;;;7.30;1.00;;;;;;5099991;27;20125;-41
2023/01/13 07:11:38;;;;;;;33.38;6.07;;;7.20;79.70;;;;;;5135107;27;20039;-39
2023/01/13 07:16:48;;;;;;;29.65;6.68;;;7.10;99.90;;;;;;5135716;27;20476;-41
2023/01/13 07:19:14;;;;;;;29.95;6.20;;;7.10;99.90;;;;;;5135053;27;20138;-41
2023/01/13 07:21:40;;;;;;;22.00;4.00;;;7.10;99.90;;;;;;5134374;27;20405;-40
2023/01/13 07:24:06;;;;;;;31.30;5.75;;;7.10;99.90;;;;;;5134918;27;20047;-40
2023/01/13 07:26:32;;;;;;;31.35;6.32;;;7.20;99.90;;;;;;5134938;27;20130;-40
2023/01/13 07:28:57;;;;;;;30.65;5.28;;;7.20;99.90;;;;;;5134905;27;20039;-40
2023/01/13 07:31:24;;;;;;;32.22;7.70;;;7.10;99.90;;;;;;5134929;27;20446;-41
2023/01/13 07:33:50;;;;;;;27.98;6.53;;;7.20;99.90;;;;;;5134827;27;20058;-42
2023/01/13 07:36:16;;;;;;;41.83;6.15;;;7.20;13.10;;;;;;5134819;27;20047;-42
2023/01/13 07:38:43;;;;;;;27.52;5.78;;;7.30;99.90;;;;;;5134928;27;20049;-42
2023/01/13 07:44:06;;;;;;;33.50;6.60;;;7.30;1.00;;;;;;5103072;27;20123;-42
2023/01/13 07:46:32;;;;;;;27.88;5.45;;;7.30;99.90;;;;;;5135329;27;20439;-43
2023/01/13 07:48:58;;;;;;;22.67;5.05;;;7.40;1.00;;;;;;5099440;27;20043;-42
2023/01/13 07:51:24;;;;;;;23.00;5.15;;;7.40;99.90;;;;;;5134719;27;20042;-42
2023/01/13 07:53:49;;;;;;;26.38;4.75;;;7.40;99.90;;;;;;5100411;28;20365;-42
2023/01/13 07:56:15;;;;;;;35.00;6.80;;;7.40;1.00;;;;;;5116295;28;20055;-42
2023/01/13 07:58:41;;;;;;;33.58;4.78;;;7.50;99.90;;;;;;5134601;28;20047;-42
2023/01/13 08:01:08;;;;;;;24.38;4.80;;;7.40;99.90;;;;;;5116443;28;20039;-42
2023/01/13 08:03:34;;;;;;;22.02;4.90;;;7.50;99.90;;;;;;5134599;28;20055;-42
2023/01/13 08:06:01;;;;;;;28.33;5.82;;;7.50;1.00;;;;;;5116440;28;20111;-42
2023/01/13 08:08:26;;;;;;;32.83;7.07;;;7.50;1.00;;;;;;5134564;28;20407;-42
2023/01/13 08:10:52;;;;;;;25.27;5.75;;;7.60;99.90;;;;;;5134519;28;20036;-42
2023/01/13 08:13:19;;;;;;;25.70;5.88;;;7.60;99.90;;;;;;5134501;28;20122;-42
2023/01/13 08:15:48;;;;;;;32.00;4.85;;;7.60;99.90;;;;;;5116370;28;20076;-42
2023/01/13 08:18:15;;;;;;;29.65;5.43;;;7.60;99.90;;;;;;5116353;28;20039;-42
2023/01/13 08:20:40;;;;;;;31.50;6.50;;;7.60;99.90;;;;;;5134323;28;20039;-42
2023/01/13 08:23:06;;;;;;;27.63;5.45;;;7.60;1.00;;;;;;5134671;28;20100;-42
2023/01/13 08:25:32;;;;;;;35.65;6.63;;;7.70;1.00;;;;;;5134239;28;20082;-42
2023/01/13 08:28:00;;;;;;;21.65;4.30;;;7.80;1.00;;;;;;5116620;28;20053;-41
2023/01/13 08:30:26;;;;;;;29.30;6.97;;;7.80;1.00;;;;;;5116264;28;20043;-41
2023/01/13 08:32:53;;;;;;;24.70;5.30;;;7.80;1.00;;;;;;5100720;27;20055;-42
2023/01/13 08:35:19;;;;;;;22.65;4.55;;;7.80;1.00;;;;;;5138327;27;20446;-42
2023/01/13 08:37:46;;;;;;;25.90;4.78;;;7.80;99.90;;;;;;5120202;27;20078;-41
2023/01/13 08:40:13;;;;;;;29.13;6.22;;;7.90;1.00;;;;;;5138231;27;20045;-41
2023/01/13 08:42:40;;;;;;;33.65;6.68;;;7.90;99.90;;;;;;5137997;27;20544;-41
2023/01/13 08:45:06;;;;;;;33.15;5.72;;;8.00;1.00;;;;;;5137845;27;20493;-41
2023/01/13 08:47:32;;;;;;;24.95;4.75;;;7.90;99.90;;;;;;5137767;27;20561;-41
2023/01/13 08:49:58;;;;;;;29.05;6.18;;;7.80;99.90;;;;;;5138037;27;20047;-41
2023/01/13 08:52:24;;;;;;;32.28;6.97;;;7.80;1.00;;;;;;5138272;27;20047;-41
2023/01/13 08:54:49;;;;;;;22.75;4.90;;;7.80;1.00;;;;;;5138475;27;20476;-42
2023/01/13 08:57:15;;;;;;;34.47;6.85;;;7.70;73.40;;;;;;5137890;27;20047;-42
2023/01/13 08:59:42;;;;;;;28.85;5.13;;;7.80;1.00;;;;;;5137765;27;20155;-39
2023/01/13 09:02:17;;;;;;;33.80;6.75;;;7.70;99.90;;;;;;5137890;27;20043;-40
2023/01/13 09:04:43;;;;;;;26.92;5.97;;;7.50;99.90;;;;;;5119728;27;20062;-39
2023/01/13 09:07:09;;;;;;;25.95;4.95;;;7.40;99.90;;;;;;5137750;27;20039;-43
2023/01/13 09:09:35;;;;;;;30.67;5.43;;;7.20;55.70;;;;;;5137673;27;20050;-42
2023/01/13 09:14:46;;;;;;;25.65;6.80;;;7.10;99.90;;;;;;5138191;27;20047;-42
2023/01/13 09:17:12;;;;;;;23.30;3.95;;;7.10;99.90;;;;;;5120237;27;20042;-41
2023/01/13 09:19:37;;;;;;;19.80;4.35;;;7.00;99.90;;;;;;5137986;27;20376;-41
2023/01/13 09:22:03;;;;;;;24.70;4.45;;;6.90;99.90;;;;;;5137523;27;20046;-39
2023/01/13 09:24:30;;;;;;;31.55;5.50;;;6.90;1.00;;;;;;5102409;27;20133;-41
2023/01/13 09:26:55;;;;;;;28.65;5.70;;;7.00;1.00;;;;;;5137296;27;20069;-41
2023/01/13 09:29:21;;;;;;;36.15;4.47;;;7.00;1.00;;;;;;5137325;27;20204;-41
2023/01/13 09:31:47;;;;;;;26.23;5.25;;;6.90;55.90;;;;;;5137321;27;20126;-41
2023/01/13 09:37:03;;;;;;;31.63;4.82;;;7.10;99.90;;;;;;5137119;27;20447;-41
2023/01/13 09:39:30;;;;;;;28.88;4.20;;;7.00;96.60;;;;;;5136975;27;20042;-41
2023/01/13 09:45:06;;;;;;;36.88;5.28;;;7.10;47.60;;;;;;5137150;27;20051;-42
2023/01/13 09:47:50;;;;;;;25.50;4.53;;;7.00;99.90;;;;;;5137063;27;20046;-44
2023/01/13 09:50:23;;;;;;;39.20;7.68;;;7.00;99.90;;;;;;5119337;27;20130;-43
2023/01/13 09:52:49;;;;;;;26.02;6.28;;;7.00;99.90;;;;;;5136879;27;20051;-43
2023/01/13 09:55:32;;;;;;;40.70;5.72;;;6.90;99.90;;;;;;5119043;27;20054;-42
2023/01/13 09:58:01;;;;;;;31.65;6.03;;;7.00;99.90;;;;;;5119060;27;20047;-41
2023/01/13 10:00:39;;;;;;;29.33;5.22;;;7.00;99.90;;;;;;5137436;27;20046;-41
2023/01/13 10:03:32;;;;;;;31.92;4.95;;;7.00;99.90;;;;;;5119455;27;20084;-42
2023/01/13 10:06:19;;;;;;;33.40;4.63;;;6.90;99.90;;;;;;5133233;27;20419;-42
2023/01/13 10:08:46;;;;;;;31.90;5.50;;;6.90;99.90;;;;;;5118420;27;20042;-43
2023/01/13 10:14:21;;;;;;;22.63;4.80;;;7.10;99.90;;;;;;5136531;27;20086;-42
2023/01/13 10:17:05;;;;;;;33.33;6.55;;;7.20;99.90;;;;;;5136363;27;20104;-42
2023/01/13 10:19:48;;;;;;;38.03;5.95;;;7.30;99.90;;;;;;5136949;27;20480;-42
2023/01/13 10:22:26;;;;;;;29.75;4.15;;;7.40;99.90;;;;;;5118075;27;20043;-41
2023/01/13 10:25:35;;;;;;;34.47;6.60;;;7.50;1.00;;;;;;5136099;27;20134;-41
2023/01/13 10:28:09;;;;;;;26.33;4.75;;;7.50;1.00;;;;;;5136457;27;20051;-42
2023/01/13 10:30:38;;;;;;;20.98;4.65;;;7.50;1.00;;;;;;5136700;27;20043;-41
2023/01/13 10:33:16;;;;;;;35.85;6.05;;;7.50;1.00;;;;;;5117956;27;20078;-41
2023/01/13 10:35:55;;;;;;;28.67;4.88;;;7.50;1.00;;;;;;5135945;27;20489;-42
2023/01/13 10:38:35;;;;;;;31.80;3.90;;;7.40;1.00;;;;;;5136589;27;20083;-42
2023/01/13 10:41:04;;;;;;;25.88;5.38;;;7.50;1.00;;;;;;5135715;27;20058;-42
2023/01/13 10:43:30;;;;;;;31.30;4.65;;;7.60;1.00;;;;;;5117833;27;20047;-42
2023/01/13 10:45:57;;;;;;;29.17;5.03;;;7.60;1.00;;;;;;5117686;27;20150;-42
2023/01/13 10:48:32;;;;;;;19.73;4.65;;;7.60;1.00;;;;;;5135738;27;20508;-42
2023/01/13 10:50:57;;;;;;;27.85;5.93;;;7.70;99.90;;;;;;5118014;27;20108;-42
2023/01/13 10:53:25;;;;;;;26.67;4.70;;;7.60;99.90;;;;;;5135677;27;20091;-42
2023/01/13 10:55:59;;;;;;;25.58;4.65;;;7.80;99.90;;;;;;5134788;27;20039;-42
2023/01/13 10:58:26;;;;;;;26.70;4.97;;;7.80;99.90;;;;;;5100529;27;20450;-42
2023/01/13 11:01:04;;;;;;;30.17;5.28;;;7.80;90.10;;;;;;5136049;27;20121;-43
2023/01/13 11:03:48;;;;;;;25.63;3.80;;;7.90;79.30;;;;;;5100154;27;20138;-42
2023/01/13 11:06:23;;;;;;;27.45;5.25;;;7.90;80.20;;;;;;5083745;27;20481;-43
2023/01/13 11:08:51;;;;;;;29.98;4.65;;;8.00;99.90;;;;;;5135924;27;20035;-43
2023/01/13 11:11:44;;;;;;;31.55;5.30;;;8.00;1.00;;;;;;5117232;27;20133;-42
2023/01/13 11:14:40;;;;;;;23.35;3.80;;;8.00;88.50;;;;;;5135639;27;20054;-42
2023/01/13 11:17:24;;;;;;;26.00;5.28;;;7.90;99.90;;;;;;5133358;27;20059;-43
2023/01/13 11:19:59;;;;;;;21.35;3.85;;;7.90;99.90;;;;;;5135138;27;20051;-42
2023/01/13 11:22:31;;;;;;;26.38;5.72;;;7.90;99.90;;;;;;5135191;27;20049;-42
2023/01/13 11:25:00;;;;;;;21.73;4.63;;;7.90;99.90;;;;;;5117481;27;20381;-42
2023/01/13 11:27:52;;;;;;;23.70;5.30;;;7.90;1.00;;;;;;5135061;27;20464;-41
2023/01/13 11:31:11;;;;;;;29.38;5.55;;;8.00;1.00;;;;;;5117496;27;20473;-42
2023/01/13 11:33:50;;;;;;;22.52;4.22;;;8.00;99.50;;;;;;5135004;27;20051;-41
2023/01/13 11:36:23;;;;;;;22.30;5.78;;;8.00;1.00;;;;;;5116658;27;20093;-42
2023/01/13 11:39:02;;;;;;;22.90;5.18;;;8.00;99.90;;;;;;5134881;27;20087;-41
2023/01/13 11:41:43;;;;;;;26.48;4.43;;;8.00;1.00;;;;;;5135642;27;20055;-41
2023/01/13 11:44:16;;;;;;;18.48;4.40;;;8.00;99.90;;;;;;5135693;27;20051;-41
2023/01/13 11:46:42;;;;;;;26.45;5.20;;;8.20;99.90;;;;;;5135191;27;20496;-41
2023/01/13 11:49:19;;;;;;;31.23;5.20;;;8.30;12.40;;;;;;5134397;27;20055;-41
2023/01/13 11:51:53;;;;;;;20.02;3.88;;;8.30;99.90;;;;;;5116513;27;20544;-41
2023/01/13 11:54:30;;;;;;;24.90;4.70;;;8.10;99.90;;;;;;5135302;27;20047;-41
2023/01/13 11:57:25;;;;;;;21.00;3.60;;;8.00;1.00;;;;;;5134994;28;20051;-39
2023/01/13 12:00:38;;;;;;;23.45;4.68;;;8.00;99.90;;;;;;5116753;28;20043;-39
2023/01/13 12:03:07;;;;;;;24.88;5.43;;;8.10;99.90;;;;;;5116522;28;20151;-39
2023/01/13 12:05:43;;;;;;;24.75;6.28;;;8.10;1.00;;;;;;5134591;28;20150;-39
2023/01/13 12:08:18;;;;;;;21.38;5.38;;;8.00;1.00;;;;;;5136534;27;20047;-38
2023/01/13 12:11:17;;;;;;;20.70;3.95;;;8.00;70.40;;;;;;5138882;27;20043;-35
2023/01/13 12:14:21;;;;;;;20.33;3.53;;;8.10;99.90;;;;;;5138846;27;20493;-38
2023/01/13 12:16:49;;;;;;;23.35;5.03;;;8.10;99.90;;;;;;5120949;27;20051;-39
2023/01/13 12:19:26;;;;;;;27.17;6.00;;;8.20;1.00;;;;;;5138557;27;20110;-41
2023/01/13 12:21:52;;;;;;;21.77;3.70;;;8.40;1.00;;;;;;5138743;27;20046;-41
2023/01/13 12:24:31;;;;;;;19.85;4.10;;;8.60;1.00;;;;;;5138551;27;20362;-41
2023/01/13 12:27:34;;;;;;;26.75;4.90;;;8.60;99.90;;;;;;5138521;27;20062;-39
2023/01/13 12:30:04;;;;;;;22.23;4.82;;;8.40;99.90;;;;;;5139376;27;20043;-40
2023/01/13 12:32:35;;;;;;;21.98;4.85;;;8.30;99.90;;;;;;5138492;27;20071;-39
2023/01/13 12:35:22;;;;;;;20.63;5.63;;;8.40;1.00;;;;;;5120148;27;20047;-41
2023/01/13 12:38:03;;;;;;;19.60;4.57;;;8.50;99.90;;;;;;5120121;27;20543;-41
2023/01/13 12:41:04;;;;;;;20.63;3.72;;;8.50;1.00;;;;;;5138429;27;20126;-41
2023/01/13 12:46:18;;;;;;;21.00;4.55;;;8.60;99.90;;;;;;5138487;27;20047;-42
2023/01/13 12:48:47;;;;;;;18.92;4.63;;;8.70;99.90;;;;;;5119753;27;20090;-42
2023/01/13 12:51:23;;;;;;;24.73;4.63;;;8.70;99.90;;;;;;5138069;27;20043;-42
2023/01/13 12:53:50;;;;;;;15.80;4.50;;;8.60;92.50;;;;;;5138569;27;20054;-42
2023/01/13 12:56:48;;;;;;;18.02;4.47;;;8.60;99.90;;;;;;5138551;27;20047;-42
2023/01/13 12:59:17;;;;;;;19.50;5.05;;;8.50;99.90;;;;;;5138550;27;20100;-42
2023/01/13 13:01:45;;;;;;;18.80;4.85;;;8.50;1.00;;;;;;5102732;27;20043;-41
2023/01/13 13:04:17;;;;;;;16.95;4.47;;;8.60;1.00;;;;;;5137828;27;20078;-41
2023/01/13 13:06:51;;;;;;;17.92;4.60;;;8.50;1.00;;;;;;5138375;27;20405;-41
2023/01/13 13:09:33;;;;;;;13.80;3.65;;;8.40;99.90;;;;;;5120220;27;20142;-41
2023/01/13 13:15:28;;;;;;;20.38;4.95;;;8.40;97.60;;;;;;5137597;27;20051;-41
2023/01/13 13:18:23;;;;;;;22.95;3.63;;;8.40;99.90;;;;;;5137687;27;20439;-42
2023/01/13 13:21:03;;;;;;;16.88;4.38;;;8.70;99.90;;;;;;5136821;27;20100;-42
2023/01/13 13:23:56;;;;;;;17.40;4.55;;;8.80;1.00;;;;;;5138033;27;20483;-42
2023/01/13 13:26:29;;;;;;;17.30;4.10;;;8.80;99.90;;;;;;5137398;27;20132;-42
2023/01/13 13:29:34;;;;;;;18.48;3.92;;;8.50;99.90;;;;;;5137399;27;20051;-42
2023/01/13 13:32:29;;;;;;;26.15;5.18;;;8.40;79.90;;;;;;5119753;27;20055;-41
2023/01/13 13:35:12;;;;;;;21.80;4.28;;;8.30;99.90;;;;;;5133363;27;20055;-40
2023/01/13 13:46:46;;;;;;;21.00;4.45;;;8.00;99.90;;;;;;5137798;27;20087;-37
2023/01/13 13:49:20;;;;;;;21.38;4.43;;;8.00;99.90;;;;;;5136700;27;20496;-34
2023/01/13 13:52:00;;;;;;;16.75;4.03;;;8.10;99.90;;;;;;5119702;27;20476;-34
2023/01/13 13:54:26;;;;;;;18.65;4.18;;;8.20;99.90;;;;;;5136807;27;20043;-36
2023/01/13 13:56:52;;;;;;;21.30;4.97;;;8.30;99.90;;;;;;5136801;27;20130;-37
2023/01/13 13:59:29;;;;;;;19.63;4.30;;;8.30;99.90;;;;;;5136613;27;20483;-41
2023/01/13 14:02:00;;;;;;;18.90;4.22;;;8.20;1.00;;;;;;5137032;27;20130;-40
2023/01/13 14:04:31;;;;;;;19.40;3.88;;;8.10;44.50;;;;;;5136782;27;20059;-40
2023/01/13 14:07:16;;;;;;;17.83;4.00;;;8.00;99.90;;;;;;5136371;27;20572;-35
2023/01/13 14:09:49;;;;;;;21.13;4.63;;;8.00;99.90;;;;;;5136661;27;20046;-40
2023/01/13 14:12:22;;;;;;;27.80;4.38;;;8.00;99.90;;;;;;5136791;27;20035;-40
2023/01/13 14:14:49;;;;;;;18.77;3.97;;;8.00;99.90;;;;;;5136460;27;20088;-42
2023/01/13 14:17:29;;;;;;;23.17;4.82;;;7.90;99.90;;;;;;5137230;27;20401;-41
2023/01/13 14:20:04;;;;;;;23.35;4.97;;;7.90;99.90;;;;;;5118836;27;20049;-41
2023/01/13 14:22:31;;;;;;;23.35;6.68;;;7.90;99.90;;;;;;5118320;27;20093;-41